createdAt,value
2018-12-25T00:07:44.617Z,92.90
2018-12-25T00:10:13.483Z,92.90
2018-12-25T00:35:22.863Z,90.70
2018-12-25T00:40:48.708Z,92.20
2018-12-25T00:51:15.435Z,92.30
2018-12-25T01:08:17.051Z,94.30
2018-12-25T01:10:51.036Z,92.20
2018-12-25T01:16:06.422Z,96.10
2018-12-25T01:18:39.127Z,93.50
2018-12-25T01:21:08.961Z,93.10
2018-12-25T01:23:38.990Z,92.80
2018-12-25T01:26:08.582Z,93.50
2018-12-25T01:37:41.348Z,92.70
2018-12-25T01:43:07.167Z,91.20
2018-12-25T01:45:47.898Z,94.00
2018-12-25T01:59:07.922Z,91.40
2018-12-25T02:01:37.214Z,92.80
2018-12-25T02:04:10.406Z,91.00
2018-12-25T02:06:39.831Z,92.80
2018-12-25T02:09:09.388Z,92.60
2018-12-25T02:11:43.126Z,93.20
2018-12-25T02:14:15.894Z,92.70
2018-12-25T02:16:50.434Z,92.00
2018-12-25T02:22:02.202Z,92.30
2018-12-25T02:24:31.212Z,92.20
2018-12-25T02:29:45.063Z,92.60
2018-12-25T02:34:58.652Z,94.30
2018-12-25T02:37:28.859Z,94.20
2018-12-25T02:42:36.441Z,91.30
2018-12-25T02:45:06.035Z,92.30
2018-12-25T02:47:40.201Z,92.30
2018-12-25T02:58:11.584Z,91.50
2018-12-25T03:00:40.845Z,91.50
2018-12-25T03:08:39.633Z,91.30
2018-12-25T03:11:08.475Z,91.60
2018-12-25T03:13:37.307Z,93.10
2018-12-25T03:18:42.972Z,92.80
2018-12-25T03:21:12.332Z,91.70
2018-12-25T03:23:41.579Z,91.80
2018-12-25T03:26:09.487Z,92.00
2018-12-25T03:31:21.351Z,93.00
2018-12-25T03:33:49.975Z,91.30
2018-12-25T03:38:53.075Z,91.90
2018-12-25T03:44:05.706Z,94.10
2018-12-25T03:46:34.192Z,92.70
2018-12-25T03:49:02.176Z,92.40
2018-12-25T03:51:30.591Z,91.50
2018-12-25T03:53:59.380Z,91.20
2018-12-25T03:56:30.947Z,91.00
2018-12-25T03:58:59.029Z,91.70
2018-12-25T04:01:27.117Z,91.30
2018-12-25T04:04:22.026Z,91.00
2018-12-25T04:07:01.557Z,91.90
2018-12-25T04:09:32.222Z,92.70
2018-12-25T04:12:23.454Z,91.50
2018-12-25T04:14:53.060Z,91.40
2018-12-25T04:17:22.702Z,91.10
2018-12-25T04:19:51.508Z,91.10
2018-12-25T04:22:19.942Z,90.70
2018-12-25T04:24:48.935Z,91.10
2018-12-25T04:27:18.131Z,90.10
2018-12-25T04:29:46.490Z,90.60
2018-12-25T04:32:15.660Z,90.10
2018-12-25T04:34:53.242Z,90.20
2018-12-25T04:37:22.626Z,91.00
2018-12-25T04:39:51.225Z,88.80
2018-12-25T04:42:19.757Z,88.30
2018-12-25T04:44:48.738Z,89.40
2018-12-25T04:47:18.233Z,88.60
2018-12-25T04:49:46.628Z,89.20
2018-12-25T04:52:15.006Z,90.20
2018-12-25T04:54:43.274Z,89.80
2018-12-25T04:57:12.443Z,90.50
2018-12-25T04:59:41.478Z,90.10
2018-12-25T05:02:13.736Z,90.50
2018-12-25T05:04:43.340Z,90.50
2018-12-25T05:07:12.218Z,90.30
2018-12-25T05:09:43.264Z,90.00
2018-12-25T05:12:11.758Z,89.50
2018-12-25T05:14:40.066Z,88.40
2018-12-25T05:19:43.622Z,91.00
2018-12-25T05:22:11.988Z,90.20
2018-12-25T05:27:23.200Z,87.40
2018-12-25T05:29:52.851Z,89.60
2018-12-25T05:32:21.138Z,90.00
2018-12-25T05:40:23.186Z,89.30
2018-12-25T05:42:51.914Z,89.60
2018-12-25T05:45:43.530Z,90.70
2018-12-25T05:50:49.255Z,91.10
2018-12-25T05:53:19.915Z,91.00
2018-12-25T05:55:48.689Z,90.90
2018-12-25T05:58:16.902Z,90.60
2018-12-25T06:00:48.324Z,91.40
2018-12-25T06:03:18.032Z,92.10
2018-12-25T06:05:48.594Z,90.80
2018-12-25T06:08:19.601Z,91.20
2018-12-25T06:13:50.204Z,92.30
2018-12-25T06:16:18.743Z,91.10
2018-12-25T06:18:46.921Z,90.90
2018-12-25T06:21:15.465Z,90.40
2018-12-25T06:23:45.620Z,91.50
2018-12-25T06:26:14.392Z,90.90
2018-12-25T06:28:45.264Z,91.40
2018-12-25T06:31:44.444Z,91.60
2018-12-25T06:33:52.672Z,92.10
2018-12-25T06:39:10.471Z,93.00
2018-12-25T06:41:38.986Z,90.80
2018-12-25T06:44:07.606Z,91.00
2018-12-25T06:46:36.782Z,91.50
2018-12-25T06:49:09.701Z,90.50
2018-12-25T06:51:38.350Z,90.60
2018-12-25T06:54:07.451Z,90.80
2018-12-25T06:59:15.813Z,90.80
2018-12-25T07:01:45.388Z,90.30
2018-12-25T07:06:50.631Z,90.80
2018-12-25T07:11:57.158Z,91.30
2018-12-25T07:20:06.940Z,92.50
2018-12-25T07:22:46.182Z,91.30
2018-12-25T07:25:17.665Z,91.50
2018-12-25T07:27:46.513Z,92.20
2018-12-25T07:32:55.128Z,90.60
2018-12-25T07:38:02.360Z,90.50
2018-12-25T07:43:23.336Z,91.10
2018-12-25T07:48:30.076Z,90.20
2018-12-25T07:53:35.508Z,92.90
2018-12-25T08:01:23.475Z,92.30
2018-12-25T08:06:43.060Z,93.50
2018-12-25T08:09:11.597Z,92.10
2018-12-25T08:23:02.373Z,90.30
2018-12-25T08:28:25.540Z,92.20
2018-12-25T08:38:55.987Z,91.50
2018-12-25T08:44:16.678Z,90.80
2018-12-25T08:49:20.923Z,89.90
2018-12-25T08:51:50.956Z,90.60
2018-12-25T08:56:54.454Z,91.10
2018-12-25T08:59:44.543Z,91.30
2018-12-25T09:02:19.284Z,89.30
2018-12-25T09:04:55.767Z,90.40
2018-12-25T09:07:24.969Z,89.70
2018-12-25T09:09:53.677Z,90.40
2018-12-25T09:12:22.156Z,91.80
2018-12-25T09:17:27.443Z,91.00
2018-12-25T09:22:32.288Z,89.20
2018-12-25T09:25:03.275Z,88.50
2018-12-25T09:27:32.382Z,90.00
2018-12-25T09:30:06.388Z,88.60
2018-12-25T09:32:35.665Z,88.40
2018-12-25T09:40:25.974Z,88.50
2018-12-25T09:42:54.359Z,87.90
2018-12-25T09:45:22.879Z,86.80
2018-12-25T09:47:51.392Z,86.30
2018-12-25T09:53:07.777Z,91.20
2018-12-25T09:55:43.723Z,90.20
2018-12-25T09:58:16.199Z,88.50
2018-12-25T10:00:52.451Z,88.40
2018-12-25T10:03:21.864Z,88.40
2018-12-25T10:05:49.845Z,88.60
2018-12-25T10:08:18.783Z,85.60
2018-12-25T10:10:49.514Z,84.60
2018-12-25T10:13:36.553Z,82.90
2018-12-25T10:16:05.478Z,84.60
2018-12-25T10:18:35.179Z,84.50
2018-12-25T10:21:03.795Z,87.00
2018-12-25T10:23:32.874Z,87.10
2018-12-25T10:26:01.055Z,84.50
2018-12-25T10:28:37.394Z,83.00
2018-12-25T10:31:05.995Z,82.60
2018-12-25T10:33:34.782Z,85.30
2018-12-25T10:36:16.824Z,83.00
2018-12-25T10:39:13.127Z,82.00
2018-12-25T10:41:41.226Z,83.00
2018-12-25T10:44:10.385Z,80.90
2018-12-25T10:46:46.872Z,80.50
2018-12-25T10:49:33.558Z,81.00
2018-12-25T10:52:01.617Z,81.50
2018-12-25T10:54:30.118Z,81.50
2018-12-25T10:57:00.134Z,84.00
2018-12-25T10:59:32.546Z,84.40
2018-12-25T11:02:03.011Z,82.70
2018-12-25T11:04:46.405Z,80.30
2018-12-25T11:09:55.748Z,82.30
2018-12-25T11:12:24.872Z,82.60
2018-12-25T11:17:40.580Z,80.10
2018-12-25T11:20:11.535Z,81.00
2018-12-25T11:22:47.176Z,80.00
2018-12-25T11:25:19.570Z,78.40
2018-12-25T11:27:48.040Z,82.90
2018-12-25T11:33:15.802Z,79.70
2018-12-25T11:38:18.888Z,79.80
2018-12-25T11:41:07.815Z,79.30
2018-12-25T11:43:38.222Z,77.90
2018-12-25T11:46:07.430Z,79.40
2018-12-25T11:54:25.552Z,78.70
2018-12-25T11:56:55.705Z,79.10
2018-12-25T11:59:49.564Z,78.40
2018-12-25T12:02:48.032Z,78.00
2018-12-25T12:05:17.862Z,77.70
2018-12-25T12:07:49.825Z,78.00
2018-12-25T12:12:59.907Z,78.90
2018-12-25T12:15:29.460Z,78.40
2018-12-25T12:18:08.568Z,77.10
2018-12-25T12:23:19.425Z,78.50
2018-12-25T12:26:29.176Z,78.10
2018-12-25T12:28:57.516Z,76.60
2018-12-25T12:31:34.926Z,74.90
2018-12-25T12:34:03.812Z,77.10
2018-12-25T12:36:33.929Z,75.70
2018-12-25T12:39:10.404Z,75.90
2018-12-25T12:41:39.477Z,73.20
2018-12-25T12:44:19.758Z,74.10
2018-12-25T12:47:07.372Z,75.20
2018-12-25T12:49:38.492Z,73.00
2018-12-25T12:52:07.848Z,74.50
2018-12-25T12:54:36.445Z,74.50
2018-12-25T12:57:07.725Z,74.20
2018-12-25T12:59:37.600Z,75.40
2018-12-25T13:02:10.130Z,76.10
2018-12-25T13:04:38.725Z,77.00
2018-12-25T13:07:07.793Z,78.40
2018-12-25T13:09:39.729Z,79.20
2018-12-25T13:12:08.234Z,79.00
2018-12-25T13:20:09.333Z,78.40
2018-12-25T13:22:37.928Z,75.60
2018-12-25T13:30:54.101Z,77.80
2018-12-25T13:33:22.316Z,77.40
2018-12-25T13:35:50.438Z,77.20
2018-12-25T13:47:15.155Z,79.00
2018-12-25T13:49:43.698Z,78.50
2018-12-25T13:52:12.711Z,80.10
2018-12-25T14:00:03.342Z,79.80
2018-12-25T14:02:32.341Z,80.70
2018-12-25T14:07:48.174Z,80.50
2018-12-25T14:12:52.068Z,78.80
2018-12-25T14:15:20.469Z,77.40
2018-12-25T14:17:48.537Z,77.50
2018-12-25T14:20:17.155Z,79.90
2018-12-25T14:22:46.895Z,83.00
2018-12-25T14:25:15.812Z,80.10
2018-12-25T14:27:46.559Z,79.10
2018-12-25T14:30:15.357Z,78.70
2018-12-25T14:32:43.583Z,78.80
2018-12-25T14:35:12.003Z,78.90
2018-12-25T14:37:41.014Z,79.40
2018-12-25T14:40:09.154Z,79.90
2018-12-25T14:42:37.261Z,80.50
2018-12-25T14:45:07.666Z,81.50
2018-12-25T14:50:11.903Z,82.50
2018-12-25T14:52:39.962Z,81.50
2018-12-25T14:55:08.658Z,80.10
2018-12-25T14:57:40.847Z,82.30
2018-12-25T15:00:17.316Z,81.80
2018-12-25T15:02:46.293Z,82.10
2018-12-25T15:05:14.628Z,84.20
2018-12-25T15:07:49.512Z,82.60
2018-12-25T15:21:22.542Z,82.20
2018-12-25T15:24:22.678Z,82.90
2018-12-25T15:32:18.228Z,83.60
2018-12-25T15:35:07.896Z,83.00
2018-12-25T15:37:36.211Z,84.00
2018-12-25T15:42:54.781Z,84.50
2018-12-25T15:45:23.339Z,83.60
2018-12-25T15:47:51.423Z,83.70
2018-12-25T15:58:10.433Z,83.60
2018-12-25T16:03:22.090Z,84.50
2018-12-25T16:05:53.515Z,85.00
2018-12-25T16:08:28.424Z,83.30
2018-12-25T16:13:38.417Z,82.70
2018-12-25T16:16:36.089Z,82.70
2018-12-25T16:19:05.853Z,84.60
2018-12-25T16:21:39.888Z,83.10
2018-12-25T16:24:08.582Z,83.00
2018-12-25T16:26:36.724Z,83.70
2018-12-25T16:29:05.389Z,82.60
2018-12-25T16:34:16.631Z,83.60
2018-12-25T16:37:15.102Z,84.60
2018-12-25T16:39:43.551Z,82.80
2018-12-25T16:52:17.763Z,84.50
2018-12-25T16:54:43.611Z,83.80
2018-12-25T17:02:22.564Z,83.50
2018-12-25T17:07:35.052Z,82.70
2018-12-25T17:10:03.591Z,82.30
2018-12-25T17:12:32.103Z,82.00
2018-12-25T17:15:00.946Z,82.40
2018-12-25T17:22:56.315Z,82.40
2018-12-25T17:36:48.203Z,82.90
2018-12-25T17:39:18.763Z,82.30
2018-12-25T17:45:19.451Z,80.90
2018-12-25T17:53:24.456Z,81.30
2018-12-25T17:56:00.093Z,80.20
2018-12-25T17:58:28.378Z,80.90
2018-12-25T18:01:03.727Z,82.00
2018-12-25T18:03:32.447Z,81.30
2018-12-25T18:06:03.676Z,81.50
2018-12-25T18:08:32.628Z,80.50
2018-12-25T18:11:02.955Z,80.10
2018-12-25T18:13:31.051Z,79.00
2018-12-25T18:16:04.190Z,78.30
2018-12-25T18:21:10.408Z,80.10
2018-12-25T18:24:00.424Z,79.40
2018-12-25T18:26:30.030Z,80.30
2018-12-25T18:31:40.334Z,79.90
2018-12-25T18:34:19.256Z,82.20
2018-12-25T18:39:59.327Z,82.10
2018-12-25T18:42:48.152Z,80.10
2018-12-25T18:45:16.916Z,80.70
2018-12-25T18:48:05.175Z,80.40
2018-12-25T18:50:33.723Z,83.50
2018-12-25T18:53:30.066Z,83.10
2018-12-25T18:55:58.134Z,82.40
2018-12-25T18:58:30.568Z,83.80
2018-12-25T19:01:26.889Z,84.80
2018-12-25T19:03:57.388Z,84.10
2018-12-25T19:08:55.299Z,85.50
2018-12-25T19:20:12.279Z,82.70
2018-12-25T19:25:25.924Z,81.50
2018-12-25T19:27:57.393Z,80.50
2018-12-25T19:33:01.483Z,87.60
2018-12-25T19:35:30.095Z,83.60
2018-12-25T19:37:59.736Z,81.60
2018-12-25T19:51:57.634Z,83.30
2018-12-25T19:56:13.911Z,81.60
2018-12-25T19:58:43.456Z,83.30
2018-12-25T20:04:04.116Z,80.90
2018-12-25T20:12:18.498Z,81.50
2018-12-25T20:15:28.397Z,81.00
2018-12-25T20:18:31.149Z,80.10
2018-12-25T20:21:46.204Z,79.70
2018-12-25T20:28:00.400Z,78.50
2018-12-25T20:30:56.975Z,80.80
2018-12-25T20:36:59.752Z,78.80
2018-12-25T20:40:05.199Z,80.00
2018-12-25T20:46:30.600Z,80.70
2018-12-25T20:49:53.200Z,79.40
2018-12-25T20:52:59.046Z,79.90
2018-12-25T20:56:16.302Z,80.70
2018-12-25T20:59:20.608Z,79.90
2018-12-25T21:02:36.414Z,82.30
2018-12-25T21:05:38.139Z,84.10
2018-12-25T21:15:21.610Z,88.40
2018-12-25T21:21:01.508Z,85.50
2018-12-25T21:26:43.318Z,86.80
2018-12-25T21:29:12.336Z,87.90
2018-12-25T21:31:42.840Z,88.30
2018-12-25T21:34:11.227Z,87.80
2018-12-25T21:39:21.774Z,91.30
2018-12-25T21:47:14.355Z,93.20
2018-12-25T21:49:46.308Z,92.20
2018-12-25T21:52:17.431Z,91.70
2018-12-25T21:55:19.566Z,92.70
2018-12-25T21:58:17.555Z,92.50
2018-12-25T22:00:45.843Z,92.50
2018-12-25T22:03:14.749Z,91.70
2018-12-25T22:05:51.731Z,93.60
2018-12-25T22:08:27.080Z,92.70
2018-12-25T22:10:55.737Z,92.20
2018-12-25T22:13:24.667Z,91.60
2018-12-25T22:16:16.391Z,90.90
2018-12-25T22:18:46.536Z,90.70
2018-12-25T22:21:14.744Z,90.30
2018-12-25T22:23:49.014Z,89.30
2018-12-25T22:29:18.665Z,89.20
2018-12-25T22:31:57.446Z,88.60
2018-12-25T22:34:25.516Z,88.90
2018-12-25T22:42:36.950Z,88.70
2018-12-25T22:45:05.893Z,89.40
2018-12-25T22:47:36.040Z,89.40
2018-12-25T22:50:44.184Z,90.60
2018-12-25T22:53:12.884Z,89.10
2018-12-25T22:55:41.053Z,89.20
2018-12-25T22:58:10.707Z,87.60
2018-12-25T23:01:00.753Z,88.10
2018-12-25T23:03:29.523Z,88.40
2018-12-25T23:05:57.989Z,90.60
2018-12-25T23:11:20.772Z,90.30
2018-12-25T23:13:53.307Z,90.10
2018-12-25T23:16:27.815Z,90.40
2018-12-25T23:21:42.889Z,90.50
2018-12-25T23:27:13.070Z,90.00
2018-12-25T23:43:26.830Z,90.00
2018-12-25T23:45:58.281Z,91.00
2018-12-25T23:48:28.513Z,90.50
2018-12-25T23:51:22.707Z,90.20
2018-12-25T23:59:36.157Z,91.80
